Time,TemperatureF,DewpointF,PressureIn,WindDirection,WindDirectionDegrees,WindSpeedMPH,WindSpeedGustMPH,Humidity,HourlyPrecipIn,Conditions,Clouds,dailyrainin,SolarRadiationWatts/m^2,SoftwareType,DateUTC
2013-04-05 00:00:00,53.3,50.1,30.12,WNW,290,4.6,5.0,89,0.00,RA,,0.00,0.0,WeatherDisplay:10.37,2013-04-05 07:00:00,
2013-04-05 00:05:00,53.3,50.1,30.12,WSW,239,3.4,4.6,89,0.00,RA,,0.00,0.0,WeatherDisplay:10.37,2013-04-05 07:05:00,
2013-04-05 00:10:00,53.3,50.4,30.12,West,265,2.0,3.5,90,0.00,OVC,,0.00,0.0,WeatherDisplay:10.37,2013-04-05 07:10:00,
2013-04-05 00:15:00,53.2,50.3,30.12,SW,235,5.1,6.9,90,0.00,OVC,,0.00,0.0,WeatherDisplay:10.37,2013-04-05 07:15:00,
2013-04-05 00:20:00,53.1,49.9,30.13,West,267,3.4,6.9,89,0.00,OVC,,0.00,0.0,WeatherDisplay:10.37,2013-04-05 07:20:00,
2013-04-05 00:25:00,53.0,49.8,30.13,SSW,206,2.6,6.9,89,0.00,OVC,,0.00,0.0,WeatherDisplay:10.37,2013-04-05 07:25:00,
2013-04-05 00:30:00,52.9,49.7,30.13,SSW,211,5.4,9.2,89,0.00,OVC,,0.00,0.0,WeatherDisplay:10.37,2013-04-05 07:30:00,
2013-04-05 00:36:00,52.8,49.6,30.13,SSW,206,2.2,4.0,89,0.00,OVC,,0.00,0.0,WeatherDisplay:10.37,2013-04-05 07:36:00,
2013-04-05 00:41:00,52.8,49.3,30.13,SW,219,2.8,4.6,88,0.00,OVC,,0.00,0.0,WeatherDisplay:10.37,2013-04-05 07:41:00,
2013-04-05 00:46:00,52.8,49.3,30.13,SSW,207,3.8,5.8,88,0.00,OVC,,0.00,0.0,WeatherDisplay:10.37,2013-04-05 07:46:00,
2013-04-05 00:52:00,52.9,49.4,30.13,WSW,249,3.2,5.0,88,0.00,OVC,,0.00,0.0,WeatherDisplay:10.37,2013-04-05 07:52:00,
2013-04-05 00:57:00,53.0,49.5,30.13,WSW,245,3.4,4.6,88,0.00,OVC,,0.00,0.0,WeatherDisplay:10.37,2013-04-05 07:57:00,
2013-04-05 01:02:00,53.0,49.2,30.13,West,259,5.0,5.8,87,0.00,OVC,,0.00,0.0,WeatherDisplay:10.37,2013-04-05 08:02:00,
2013-04-05 01:07:00,53.1,49.3,30.13,WSW,256,2.2,3.5,87,0.00,OVC,,0.00,0.0,WeatherDisplay:10.37,2013-04-05 08:07:00,
2013-04-05 01:12:00,53.2,49.4,30.13,WSW,241,2.6,4.6,87,0.00,OVC,,0.00,0.0,WeatherDisplay:10.37,2013-04-05 08:12:00,
2013-04-05 01:17:00,53.2,49.4,30.13,West,259,2.4,4.6,87,0.00,OVC,,0.00,0.0,WeatherDisplay:10.37,2013-04-05 08:17:00,
2013-04-05 01:22:00,53.3,49.5,30.13,West,270,2.1,4.6,87,0.00,OVC,,0.00,0.0,WeatherDisplay:10.37,2013-04-05 08:22:00,
2013-04-05 01:27:00,53.3,49.8,30.13,West,279,4.4,6.9,88,0.00,OVC,,0.00,0.0,WeatherDisplay:10.37,2013-04-05 08:27:00,
2013-04-05 01:32:00,53.3,49.8,30.13,West,259,1.9,5.0,88,0.00,OVC,,0.00,0.0,WeatherDisplay:10.37,2013-04-05 08:32:00,
2013-04-05 01:37:00,53.3,49.8,30.13,WSW,238,6.6,8.0,88,0.00,OVC,,0.00,0.0,WeatherDisplay:10.37,2013-04-05 08:37:00,
2013-04-05 01:42:00,53.2,49.7,30.13,WSW,245,4.7,6.9,88,0.00,OVC,,0.00,0.0,WeatherDisplay:10.37,2013-04-05 08:42:00,
2013-04-05 01:47:00,53.2,49.7,30.13,SW,232,2.6,3.5,88,0.00,OVC,,0.00,0.0,WeatherDisplay:10.37,2013-04-05 08:47:00,
2013-04-05 01:52:00,53.2,49.7,30.13,WSW,241,1.9,3.5,88,0.00,OVC,,0.00,0.0,WeatherDisplay:10.37,2013-04-05 08:52:00,
2013-04-05 01:57:00,53.2,49.7,30.12,WSW,241,1.4,3.5,88,0.00,OVC,,0.00,0.0,WeatherDisplay:10.37,2013-04-05 08:57:00,
2013-04-05 02:02:00,53.2,49.7,30.13,WSW,239,2.5,3.5,88,0.00,OVC,,0.00,0.0,WeatherDisplay:10.37,2013-04-05 09:02:00,
2013-04-05 02:07:00,53.2,49.7,30.13,SW,221,4.4,5.8,88,0.00,OVC,,0.00,0.0,WeatherDisplay:10.37,2013-04-05 09:07:00,
2013-04-05 02:12:00,53.2,49.7,30.13,SW,235,4.0,8.1,88,0.00,OVC,,0.00,0.0,WeatherDisplay:10.37,2013-04-05 09:12:00,
2013-04-05 02:17:00,53.2,49.4,30.13,SW,235,4.2,5.0,87,0.00,OVC,,0.00,0.0,WeatherDisplay:10.37,2013-04-05 09:17:00,
2013-04-05 02:22:00,53.2,49.4,30.12,WSW,243,3.5,4.6,87,0.00,OVC,,0.00,0.0,WeatherDisplay:10.37,2013-04-05 09:22:00,
2013-04-05 02:27:00,53.2,49.4,30.12,SW,228,3.7,5.8,87,0.00,OVC,,0.00,0.0,WeatherDisplay:10.37,2013-04-05 09:27:00,
2013-04-05 02:32:00,53.2,49.4,30.13,SW,232,1.4,3.0,87,0.00,OVC,,0.00,0.0,WeatherDisplay:10.37,2013-04-05 09:32:00,
2013-04-05 02:37:00,53.2,49.4,30.13,SW,223,1.8,3.5,87,0.00,OVC,,0.00,0.0,WeatherDisplay:10.37,2013-04-05 09:37:00,
2013-04-05 02:42:00,53.2,49.1,30.12,SW,235,3.9,7.0,86,0.00,OVC,,0.00,0.0,WeatherDisplay:10.37,2013-04-05 09:42:00,
2013-04-05 02:47:00,53.2,49.1,30.13,WSW,243,4.8,6.9,86,0.00,OVC,,0.00,0.0,WeatherDisplay:10.37,2013-04-05 09:47:00,
2013-04-05 02:52:00,53.3,49.2,30.12,WSW,239,2.5,3.5,86,0.00,OVC,,0.00,0.0,WeatherDisplay:10.37,2013-04-05 09:52:00,
2013-04-05 02:57:00,53.3,48.9,30.12,West,260,3.0,3.5,85,0.00,OVC,,0.00,0.0,WeatherDisplay:10.37,2013-04-05 09:57:00,
2013-04-05 03:02:00,53.3,49.2,30.12,West,272,3.6,4.6,86,0.00,OVC,,0.00,0.0,WeatherDisplay:10.37,2013-04-05 10:02:00,
2013-04-05 03:07:00,53.3,49.5,30.12,West,270,4.6,8.1,87,0.00,OVC,,0.00,0.0,WeatherDisplay:10.37,2013-04-05 10:07:00,
2013-04-05 03:12:00,53.3,49.5,30.12,SW,217,4.1,6.9,87,0.00,OVC,,0.00,0.0,WeatherDisplay:10.37,2013-04-05 10:12:00,
2013-04-05 03:17:00,53.2,49.4,30.13,SW,223,3.2,4.0,87,0.00,OVC,,0.00,0.0,WeatherDisplay:10.37,2013-04-05 10:17:00,
2013-04-05 03:23:00,53.2,49.4,30.12,WSW,241,2.1,4.6,87,0.00,OVC,,0.00,0.0,WeatherDisplay:10.37,2013-04-05 10:23:00,
2013-04-05 03:28:00,53.1,49.6,30.12,SSW,212,1.8,3.5,88,0.00,OVC,,0.00,0.0,WeatherDisplay:10.37,2013-04-05 10:28:00,
2013-04-05 03:33:00,53.1,49.6,30.13,WSW,251,2.6,5.8,88,0.00,OVC,,0.00,0.0,WeatherDisplay:10.37,2013-04-05 10:33:00,
2013-04-05 03:38:00,53.1,49.3,30.13,SW,221,5.8,8.1,87,0.00,OVC,,0.00,0.0,WeatherDisplay:10.37,2013-04-05 10:38:00,
2013-04-05 03:43:00,53.0,49.2,30.13,SW,228,4.6,6.9,87,0.00,OVC,,0.00,0.0,WeatherDisplay:10.37,2013-04-05 10:43:00,
2013-04-05 03:48:00,53.0,48.9,30.13,WSW,246,3.9,4.6,86,0.00,OVC,,0.00,0.0,WeatherDisplay:10.37,2013-04-05 10:48:00,
2013-04-05 03:53:00,53.0,48.9,30.12,WSW,253,2.9,5.0,86,0.00,OVC,,0.00,0.0,WeatherDisplay:10.37,2013-04-05 10:53:00,
2013-04-05 03:58:00,53.0,48.6,30.12,SW,214,1.5,2.3,85,0.00,OVC,,0.00,0.0,WeatherDisplay:10.37,2013-04-05 10:58:00,
2013-04-05 04:03:00,53.0,48.6,30.12,SW,214,1.5,3.5,85,0.00,OVC,,0.00,0.0,WeatherDisplay:10.37,2013-04-05 11:03:00,
2013-04-05 04:08:00,53.0,48.9,30.12,SW,214,0.3,2.3,86,0.00,OVC,,0.00,0.0,WeatherDisplay:10.37,2013-04-05 11:08:00,
2013-04-05 04:14:00,52.9,48.8,30.12,SW,214,0.0,0.0,86,0.00,OVC,,0.00,0.0,WeatherDisplay:10.37,2013-04-05 11:14:00,
2013-04-05 04:19:00,52.9,48.5,30.12,SW,214,0.0,0.0,85,0.00,OVC,,0.00,0.0,WeatherDisplay:10.37,2013-04-05 11:19:00,
2013-04-05 04:24:00,52.9,48.2,30.12,SW,215,1.5,3.0,84,0.00,OVC,,0.00,0.0,WeatherDisplay:10.37,2013-04-05 11:24:00,
2013-04-05 04:29:00,53.0,48.3,30.12,SSE,152,2.3,3.5,84,0.00,OVC,,0.00,0.0,WeatherDisplay:10.37,2013-04-05 11:29:00,
2013-04-05 04:34:00,53.1,48.4,30.12,SE,124,2.5,3.5,84,0.00,OVC,,0.00,0.0,WeatherDisplay:10.37,2013-04-05 11:34:00,
2013-04-05 04:39:00,53.1,48.7,30.12,ESE,116,1.3,2.3,85,0.00,OVC,,0.00,0.0,WeatherDisplay:10.37,2013-04-05 11:39:00,
2013-04-05 04:44:00,53.1,48.7,30.12,ESE,116,0.1,1.2,85,0.00,OVC,,0.00,0.0,WeatherDisplay:10.37,2013-04-05 11:44:00,
2013-04-05 04:49:00,53.1,49.0,30.13,ESE,116,0.0,0.0,86,0.00,OVC,,0.00,0.0,WeatherDisplay:10.37,2013-04-05 11:49:00,
2013-04-05 04:54:00,53.0,48.6,30.13,ESE,116,0.3,1.2,85,0.00,OVC,,0.00,0.0,WeatherDisplay:10.37,2013-04-05 11:54:00,
2013-04-05 04:59:00,53.0,48.6,30.13,ESE,116,0.8,2.3,85,0.00,OVC,,0.00,0.0,WeatherDisplay:10.37,2013-04-05 11:59:00,
2013-04-05 05:04:00,53.0,48.6,30.13,ESE,116,2.0,3.5,85,0.00,OVC,,0.00,0.0,WeatherDisplay:10.37,2013-04-05 12:04:00,
2013-04-05 05:09:00,53.0,48.6,30.13,ESE,116,2.0,3.5,85,0.00,OVC,,0.00,0.0,WeatherDisplay:10.37,2013-04-05 12:09:00,
2013-04-05 05:14:00,52.8,48.7,30.12,East,96,2.9,4.0,86,0.00,OVC,,0.00,0.0,WeatherDisplay:10.37,2013-04-05 12:14:00,
2013-04-05 05:19:00,52.8,48.7,30.12,ESE,109,4.4,5.8,86,0.00,OVC,,0.00,0.0,WeatherDisplay:10.37,2013-04-05 12:19:00,
2013-04-05 05:24:00,52.7,49.2,30.12,SE,125,3.7,4.0,88,0.00,OVC,,0.00,0.0,WeatherDisplay:10.37,2013-04-05 12:24:00,
2013-04-05 05:29:00,52.6,49.1,30.12,SE,138,5.2,6.9,88,0.00,OVC,,0.00,0.0,WeatherDisplay:10.37,2013-04-05 12:29:00,
2013-04-05 05:34:00,52.4,48.9,30.13,SE,146,4.2,4.2,88,0.00,OVC,,0.00,0.0,WeatherDisplay:10.37,2013-04-05 12:34:00,
2013-04-05 05:39:00,52.4,48.6,30.13,SE,134,1.3,3.5,87,0.00,OVC,,0.00,0.0,WeatherDisplay:10.37,2013-04-05 12:39:00,
2013-04-05 05:45:00,52.4,48.9,30.13,SE,133,0.0,1.2,88,0.00,OVC,,0.00,0.0,WeatherDisplay:10.37,2013-04-05 12:45:00,
2013-04-05 05:50:00,52.4,48.9,30.13,SE,134,1.3,2.0,88,0.00,OVC,,0.00,0.0,WeatherDisplay:10.37,2013-04-05 12:50:00,
2013-04-05 05:55:00,52.4,48.6,30.13,SE,134,0.9,2.3,87,0.00,OVC,,0.00,0.0,WeatherDisplay:10.37,2013-04-05 12:55:00,
2013-04-05 06:00:00,52.5,48.7,30.13,SE,132,2.0,3.0,87,0.00,OVC,OVC,0.00,0.0,WeatherDisplay:10.37,2013-04-05 13:00:00,
2013-04-05 06:05:00,52.6,49.1,30.13,SE,137,2.6,3.5,88,0.00,OVC,,0.00,0.0,WeatherDisplay:10.37,2013-04-05 13:05:00,
2013-04-05 06:10:00,52.6,49.4,30.13,SSE,156,1.4,3.0,89,0.00,OVC,,0.00,0.0,WeatherDisplay:10.37,2013-04-05 13:10:00,
2013-04-05 06:15:00,52.5,49.4,30.13,SSE,156,0.0,3.0,89,0.00,OVC,OVC,0.00,0.0,WeatherDisplay:10.37,2013-04-05 13:15:00,
2013-04-05 06:20:00,52.5,49.4,30.13,SSE,156,0.0,0.0,89,0.00,OVC,,0.00,0.0,WeatherDisplay:10.37,2013-04-05 13:20:00,
2013-04-05 06:25:00,52.5,49.3,30.13,SSE,156,0.0,0.0,89,0.00,OVC,OVC,0.00,0.0,WeatherDisplay:10.37,2013-04-05 13:25:00,
2013-04-05 06:30:00,52.4,49.3,30.13,SSE,156,0.0,0.0,89,0.00,OVC,OVC,0.00,0.0,WeatherDisplay:10.37,2013-04-05 13:30:00,
2013-04-05 06:35:00,52.4,49.6,30.14,SSE,156,0.0,0.0,90,0.00,OVC,,0.00,0.0,WeatherDisplay:10.37,2013-04-05 13:35:00,
2013-04-05 06:40:00,52.4,49.6,30.14,South,174,0.7,1.0,90,0.00,OVC,,0.00,0.0,WeatherDisplay:10.37,2013-04-05 13:40:00,
2013-04-05 06:45:00,52.3,49.8,30.13,WSW,256,2.5,3.5,91,0.00,OVC,,0.00,0.0,WeatherDisplay:10.37,2013-04-05 13:45:00,
2013-04-05 06:50:00,52.2,49.7,30.13,West,268,1.0,3.0,91,0.00,OVC,OVC,0.00,0.0,WeatherDisplay:10.37,2013-04-05 13:50:00,
2013-04-05 06:55:00,52.2,49.9,30.13,West,275,0.0,1.2,92,0.00,OVC,,0.00,5.0,WeatherDisplay:10.37,2013-04-05 13:55:00,
2013-04-05 07:00:00,52.1,49.8,30.13,West,274,0.0,0.0,92,0.00,OVC,,0.00,11.0,WeatherDisplay:10.37,2013-04-05 14:00:00,
2013-04-05 07:05:00,52.1,49.8,30.13,West,268,1.0,2.3,92,0.00,OVC,,0.00,14.0,WeatherDisplay:10.37,2013-04-05 14:05:00,
2013-04-05 07:10:00,52.1,49.8,30.13,South,188,3.3,3.5,92,0.00,OVC,,0.00,18.0,WeatherDisplay:10.37,2013-04-05 14:10:00,
2013-04-05 07:15:00,52.1,49.8,30.13,South,186,1.9,3.5,92,0.00,OVC,,0.00,25.0,WeatherDisplay:10.37,2013-04-05 14:15:00,
2013-04-05 07:20:00,52.1,50.1,30.13,SSW,206,4.0,4.0,93,0.00,OVC,,0.00,28.0,WeatherDisplay:10.37,2013-04-05 14:20:00,
2013-04-05 07:25:00,52.1,50.1,30.13,South,183,5.3,6.9,93,0.00,OVC,,0.00,35.0,WeatherDisplay:10.37,2013-04-05 14:25:00,
2013-04-05 07:30:00,52.1,50.1,30.13,South,178,4.9,6.0,93,0.00,OVC,,0.00,47.0,WeatherDisplay:10.37,2013-04-05 14:30:00,
2013-04-05 07:36:00,52.1,50.1,30.14,SSW,210,2.6,4.6,93,0.00,OVC,,0.00,54.0,WeatherDisplay:10.37,2013-04-05 14:36:00,
2013-04-05 07:41:00,52.2,50.2,30.14,SW,227,4.0,5.0,93,0.00,OVC,,0.00,62.0,WeatherDisplay:10.37,2013-04-05 14:41:00,
2013-04-05 07:46:00,52.3,50.3,30.14,SW,232,3.4,5.8,93,0.00,OVC,,0.00,56.0,WeatherDisplay:10.37,2013-04-05 14:46:00,
2013-04-05 07:51:00,52.6,50.6,30.15,West,277,3.2,4.6,93,0.00,OVC,,0.00,69.0,WeatherDisplay:10.37,2013-04-05 14:51:00,
2013-04-05 07:56:00,52.8,50.8,30.15,WSW,241,3.6,5.8,93,0.00,OVC,,0.00,79.0,WeatherDisplay:10.37,2013-04-05 14:56:00,
2013-04-05 08:01:00,53.2,50.9,30.15,WNW,293,2.8,4.6,92,0.00,OVC,,0.00,97.0,WeatherDisplay:10.37,2013-04-05 15:01:00,
2013-04-05 08:06:00,53.5,51.2,30.15,NW,305,3.0,4.6,92,0.00,CLR,,0.00,105.0,WeatherDisplay:10.37,2013-04-05 15:06:00,
2013-04-05 08:11:00,53.8,51.2,30.15,WSW,252,4.0,5.0,91,0.00,CLR,,0.00,130.0,WeatherDisplay:10.37,2013-04-05 15:11:00,
2013-04-05 08:16:00,54.2,51.6,30.15,WSW,241,6.3,9.0,91,0.00,CLR,,0.00,165.0,WeatherDisplay:10.37,2013-04-05 15:16:00,
2013-04-05 08:21:00,54.5,51.9,30.16,WSW,249,4.7,9.2,91,0.00,CLR,,0.00,185.0,WeatherDisplay:10.37,2013-04-05 15:21:00,
2013-04-05 08:26:00,54.8,52.2,30.16,SSW,195,6.9,9.2,91,0.00,CLR,,0.00,162.0,WeatherDisplay:10.37,2013-04-05 15:26:00,
2013-04-05 08:31:00,54.7,51.8,30.16,WSW,244,4.0,7.0,90,0.00,CLR,,0.00,142.0,WeatherDisplay:10.37,2013-04-05 15:31:00,
2013-04-05 08:37:00,54.3,51.4,30.16,WSW,257,4.4,8.1,90,0.00,CLR,,0.00,128.0,WeatherDisplay:10.37,2013-04-05 15:37:00,
2013-04-05 08:42:00,54.3,51.4,30.16,SW,214,4.7,6.9,90,0.00,CLR,,0.00,144.0,WeatherDisplay:10.37,2013-04-05 15:42:00,
2013-04-05 08:47:00,54.6,52.0,30.16,WNW,285,2.8,4.6,91,0.00,CLR,,0.00,137.0,WeatherDisplay:10.37,2013-04-05 15:47:00,
2013-04-05 08:52:00,55.0,52.4,30.16,WSW,253,4.8,8.0,91,0.00,CLR,,0.00,146.0,WeatherDisplay:10.37,2013-04-05 15:52:00,
2013-04-05 08:57:00,55.2,52.0,30.16,SW,235,6.6,8.1,89,0.00,CLR,,0.00,195.0,WeatherDisplay:10.37,2013-04-05 15:57:00,
2013-04-05 09:02:00,55.6,52.4,30.17,SW,215,2.2,4.6,89,0.00,BKN,,0.00,163.0,WeatherDisplay:10.37,2013-04-05 16:02:00,
2013-04-05 09:07:00,55.9,52.4,30.16,WSW,244,4.8,5.8,88,0.00,BKN,,0.00,171.0,WeatherDisplay:10.37,2013-04-05 16:07:00,
2013-04-05 09:12:00,56.1,52.0,30.16,WNW,293,2.9,4.6,86,0.00,BKN,,0.00,176.0,WeatherDisplay:10.37,2013-04-05 16:12:00,
2013-04-05 09:17:00,56.6,52.8,30.16,WSW,239,4.7,4.7,87,0.00,BKN,,0.00,181.0,WeatherDisplay:10.37,2013-04-05 16:17:00,
2013-04-05 09:22:00,57.1,52.6,30.16,WSW,257,2.4,3.5,85,0.00,BKN,,0.00,186.0,WeatherDisplay:10.37,2013-04-05 16:22:00,
2013-04-05 09:27:00,57.5,52.7,30.16,WSW,242,7.8,9.2,84,0.00,BKN,,0.00,200.0,WeatherDisplay:10.37,2013-04-05 16:27:00,
2013-04-05 09:32:00,57.8,51.7,30.16,WSW,245,7.1,9.2,80,0.00,OVC,,0.00,264.0,WeatherDisplay:10.37,2013-04-05 16:32:00,
2013-04-05 09:37:00,58.1,51.3,30.16,WSW,247,6.6,8.1,78,0.00,OVC,,0.00,360.0,WeatherDisplay:10.37,2013-04-05 16:37:00,
2013-04-05 09:42:00,58.2,51.4,30.16,South,188,4.2,6.9,78,0.00,OVC,,0.00,489.0,WeatherDisplay:10.37,2013-04-05 16:42:00,
2013-04-05 09:47:00,58.5,51.7,30.15,WSW,238,4.4,5.8,78,0.00,OVC,,0.00,533.0,WeatherDisplay:10.37,2013-04-05 16:47:00,
2013-04-05 09:52:00,58.9,51.0,30.15,SSE,150,2.7,4.0,75,0.00,OVC,,0.00,510.0,WeatherDisplay:10.37,2013-04-05 16:52:00,
2013-04-05 09:57:00,59.6,51.7,30.15,WNW,300,0.6,2.0,75,0.00,OVC,,0.00,628.0,WeatherDisplay:10.37,2013-04-05 16:57:00,
2013-04-05 10:02:00,60.2,51.9,30.15,SW,221,2.5,5.8,74,0.00,OVC,,0.01,538.0,WeatherDisplay:10.37,2013-04-05 17:02:00,
2013-04-05 10:07:00,60.3,51.6,30.15,WNW,289,2.9,6.9,73,0.01,RA,,0.01,248.0,WeatherDisplay:10.37,2013-04-05 17:07:00,
2013-04-05 10:12:00,60.2,51.1,30.15,WSW,243,2.3,5.8,72,0.01,RA,,0.01,309.0,WeatherDisplay:10.37,2013-04-05 17:12:00,
2013-04-05 10:17:00,60.3,51.6,30.15,NW,318,1.1,3.5,73,0.01,OVC,,0.01,320.0,WeatherDisplay:10.37,2013-04-05 17:17:00,
2013-04-05 10:23:00,60.5,51.8,30.15,SSW,197,4.0,6.9,73,0.01,OVC,,0.01,276.0,WeatherDisplay:10.37,2013-04-05 17:23:00,
2013-04-05 10:28:00,60.5,51.4,30.16,SSW,213,4.2,7.0,72,0.01,OVC,,0.01,230.0,WeatherDisplay:10.37,2013-04-05 17:28:00,
2013-04-05 10:33:00,60.3,50.9,30.16,WNW,284,1.2,3.5,71,0.01,OVC,,0.01,244.0,WeatherDisplay:10.37,2013-04-05 17:33:00,
2013-04-05 10:38:00,60.3,51.6,30.16,WSW,249,0.2,1.2,73,0.01,OVC,,0.01,404.0,WeatherDisplay:10.37,2013-04-05 17:38:00,
2013-04-05 10:43:00,60.6,52.3,30.16,NW,304,9.5,11.5,74,0.01,OVC,,0.01,494.0,WeatherDisplay:10.37,2013-04-05 17:43:00,
2013-04-05 10:48:00,60.7,52.4,30.17,West,280,10.6,14.0,74,0.01,OVC,,0.01,482.0,WeatherDisplay:10.37,2013-04-05 17:48:00,
2013-04-05 10:53:00,60.4,52.8,30.17,WNW,288,4.9,9.2,76,0.01,OVC,,0.01,345.0,WeatherDisplay:10.37,2013-04-05 17:53:00,
2013-04-05 10:58:00,59.9,51.2,30.17,SSW,211,9.2,15.0,73,0.01,OVC,,0.01,376.0,WeatherDisplay:10.37,2013-04-05 17:58:00,
2013-04-05 11:03:00,59.5,51.6,30.17,West,270,8.9,14.0,75,0.00,OVC,,0.01,496.0,WeatherDisplay:10.37,2013-04-05 18:03:00,
2013-04-05 11:08:00,59.7,51.4,30.17,SW,226,9.9,13.0,74,0.00,OVC,,0.01,766.0,WeatherDisplay:10.37,2013-04-05 18:08:00,
2013-04-05 11:13:00,60.2,51.5,30.17,West,266,6.8,9.2,73,0.00,OVC,,0.01,837.0,WeatherDisplay:10.37,2013-04-05 18:13:00,
2013-04-05 11:18:00,60.7,51.6,30.17,SW,236,3.4,6.9,72,0.00,OVC,,0.01,856.0,WeatherDisplay:10.37,2013-04-05 18:18:00,
2013-04-05 11:23:00,61.4,51.9,30.16,WNW,295,6.9,12.7,71,0.00,FEW,,0.01,645.0,WeatherDisplay:10.37,2013-04-05 18:23:00,
2013-04-05 11:28:00,62.0,52.5,30.16,WSW,248,11.6,15.0,71,0.00,FEW,,0.01,510.0,WeatherDisplay:10.37,2013-04-05 18:28:00,
2013-04-05 11:33:00,62.1,52.2,30.17,WSW,242,10.6,15.0,70,0.00,FEW,,0.01,842.0,WeatherDisplay:10.37,2013-04-05 18:33:00,
2013-04-05 11:38:00,62.2,52.7,30.17,WSW,251,10.9,13.8,71,0.00,FEW,,0.01,793.0,WeatherDisplay:10.37,2013-04-05 18:38:00,
2013-04-05 11:43:00,61.7,51.8,30.17,SW,217,14.5,19.6,70,0.00,FEW,,0.01,865.0,WeatherDisplay:10.37,2013-04-05 18:43:00,
2013-04-05 11:48:00,61.5,52.4,30.17,SSW,208,10.4,14.0,72,0.00,FEW,,0.01,933.0,WeatherDisplay:10.37,2013-04-05 18:48:00,
2013-04-05 11:53:00,61.4,51.9,30.17,WSW,251,9.4,15.0,71,0.00,FEW,,0.01,877.0,WeatherDisplay:10.37,2013-04-05 18:53:00,
2013-04-05 11:58:00,61.5,52.0,30.17,West,279,10.4,13.8,71,0.00,FEW,,0.01,933.0,WeatherDisplay:10.37,2013-04-05 18:58:00,
2013-04-05 12:03:00,61.6,52.5,30.17,WNW,293,6.1,10.4,72,0.00,FEW,,0.01,930.0,WeatherDisplay:10.37,2013-04-05 19:03:00,
2013-04-05 12:08:00,62.1,52.2,30.17,WSW,257,11.0,15.0,70,0.00,FEW,,0.01,362.0,WeatherDisplay:10.37,2013-04-05 19:08:00,
2013-04-05 12:13:00,62.2,51.9,30.18,WNW,286,6.5,11.0,69,0.00,FEW,,0.01,323.0,WeatherDisplay:10.37,2013-04-05 19:13:00,
2013-04-05 12:18:00,61.6,51.7,30.18,WSW,237,4.2,10.4,70,0.00,FEW,,0.01,318.0,WeatherDisplay:10.37,2013-04-05 19:18:00,
2013-04-05 12:23:00,61.2,51.7,30.18,WSW,256,9.6,12.7,71,0.00,FEW,,0.01,332.0,WeatherDisplay:10.37,2013-04-05 19:23:00,
2013-04-05 12:28:00,60.6,51.1,30.18,WNW,302,12.2,18.4,71,0.00,FEW,,0.01,279.0,WeatherDisplay:10.37,2013-04-05 19:28:00,
2013-04-05 12:33:00,60.1,51.0,30.18,WSW,249,15.2,17.3,72,0.00,FEW,,0.01,294.0,WeatherDisplay:10.37,2013-04-05 19:33:00,
2013-04-05 12:38:00,59.9,51.2,30.18,WSW,245,12.2,16.1,73,0.00,FEW,,0.01,1106.0,WeatherDisplay:10.37,2013-04-05 19:38:00,
2013-04-05 12:43:00,60.5,52.2,30.18,NW,311,9.4,12.7,74,0.00,FEW,,0.01,427.0,WeatherDisplay:10.37,2013-04-05 19:43:00,
2013-04-05 12:48:00,60.6,51.5,30.18,West,259,8.9,11.5,72,0.00,FEW,,0.01,290.0,WeatherDisplay:10.37,2013-04-05 19:48:00,
2013-04-05 12:53:00,60.4,51.3,30.18,WSW,253,5.0,11.5,72,0.00,FEW,,0.01,415.0,WeatherDisplay:10.37,2013-04-05 19:53:00,
2013-04-05 12:58:00,60.9,51.8,30.18,NW,316,5.4,12.0,72,0.00,FEW,,0.01,893.0,WeatherDisplay:10.37,2013-04-05 19:58:00,
2013-04-05 13:03:00,61.5,51.6,30.18,West,270,4.3,10.4,70,0.00,SCT,,0.01,853.0,WeatherDisplay:10.37,2013-04-05 20:03:00,
2013-04-05 13:08:00,62.1,52.6,30.17,WSW,252,16.0,19.0,71,0.00,SCT,,0.01,540.0,WeatherDisplay:10.37,2013-04-05 20:08:00,
2013-04-05 13:13:00,61.5,51.6,30.17,SSW,200,11.8,16.1,70,0.00,SCT,,0.01,452.0,WeatherDisplay:10.37,2013-04-05 20:13:00,
2013-04-05 13:18:00,60.9,51.4,30.16,West,276,4.9,10.4,71,0.00,SCT,,0.01,346.0,WeatherDisplay:10.37,2013-04-05 20:18:00,
2013-04-05 13:23:00,60.8,51.7,30.16,WSW,253,3.9,6.9,72,0.00,SCT,,0.01,346.0,WeatherDisplay:10.37,2013-04-05 20:23:00,
2013-04-05 13:28:00,61.1,52.0,30.15,South,186,3.5,5.8,72,0.00,SCT,,0.01,487.0,WeatherDisplay:10.37,2013-04-05 20:28:00,
2013-04-05 13:33:00,61.5,51.6,30.15,SSW,203,6.1,10.4,70,0.00,SCT,,0.01,510.0,WeatherDisplay:10.37,2013-04-05 20:33:00,
2013-04-05 13:38:00,61.8,51.9,30.14,South,187,8.9,13.8,70,0.00,SCT,,0.01,856.0,WeatherDisplay:10.37,2013-04-05 20:38:00,
2013-04-05 13:43:00,62.3,51.2,30.14,South,173,2.3,5.8,67,0.00,SCT,,0.01,1014.0,WeatherDisplay:10.37,2013-04-05 20:43:00,
2013-04-05 13:48:00,62.6,51.5,30.14,WSW,239,1.9,5.8,67,0.00,SCT,,0.01,953.0,WeatherDisplay:10.37,2013-04-05 20:48:00,
2013-04-05 13:53:00,63.2,52.1,30.13,WNW,294,7.1,9.2,67,0.00,SCT,,0.01,898.0,WeatherDisplay:10.37,2013-04-05 20:53:00,
2013-04-05 13:58:00,63.6,52.4,30.14,WNW,284,5.5,9.2,67,0.00,SCT,,0.01,997.0,WeatherDisplay:10.37,2013-04-05 20:58:00,
2013-04-05 14:04:00,64.2,52.6,30.14,NW,314,1.7,8.1,66,0.00,FEW,,0.01,889.0,WeatherDisplay:10.37,2013-04-05 21:04:00,
2013-04-05 14:09:00,64.6,52.1,30.15,SW,224,8.6,17.3,64,0.00,FEW,,0.01,946.0,WeatherDisplay:10.37,2013-04-05 21:09:00,
2013-04-05 14:15:00,64.7,51.9,30.15,WSW,237,7.0,21.0,63,0.00,FEW,FEW,0.01,336.0,WeatherDisplay:10.37,2013-04-05 21:15:00,
2013-04-05 14:20:00,64.8,53.2,30.15,West,266,12.0,21.0,66,0.00,FEW,FEW,0.01,970.0,WeatherDisplay:10.37,2013-04-05 21:20:00,
2013-04-05 14:25:00,64.5,52.0,30.15,WSW,248,13.4,18.0,64,0.00,FEW,,0.01,1060.0,WeatherDisplay:10.37,2013-04-05 21:25:00,
2013-04-05 14:30:00,63.8,51.4,30.15,SW,224,12.4,17.3,64,0.00,FEW,,0.01,418.0,WeatherDisplay:10.37,2013-04-05 21:30:00,
2013-04-05 14:35:00,63.5,51.5,30.15,NW,326,9.1,12.7,65,0.00,FEW,,0.01,963.0,WeatherDisplay:10.37,2013-04-05 21:35:00,
2013-04-05 14:40:00,63.6,51.6,30.14,SSE,161,9.8,13.8,65,0.00,FEW,,0.01,914.0,WeatherDisplay:10.37,2013-04-05 21:40:00,
2013-04-05 14:45:00,63.7,51.7,30.15,SSW,195,10.0,15.0,65,0.00,FEW,,0.01,343.0,WeatherDisplay:10.37,2013-04-05 21:45:00,
2013-04-05 14:50:00,63.1,50.7,30.14,WSW,256,11.3,17.3,64,0.00,FEW,,0.01,788.0,WeatherDisplay:10.37,2013-04-05 21:50:00,
2013-04-05 14:55:00,62.9,51.8,30.14,WSW,240,13.4,17.3,67,0.00,FEW,,0.01,719.0,WeatherDisplay:10.37,2013-04-05 21:55:00,
2013-04-05 15:00:00,62.6,51.9,30.14,West,275,9.8,12.0,68,0.00,FEW,,0.01,675.0,WeatherDisplay:10.37,2013-04-05 22:00:00,
2013-04-05 15:05:00,62.5,51.8,30.14,WSW,257,8.6,15.0,68,0.00,BKN,,0.01,830.0,WeatherDisplay:10.37,2013-04-05 22:05:00,
2013-04-05 15:10:00,62.6,51.9,30.14,SW,230,8.3,11.5,68,0.00,BKN,,0.01,816.0,WeatherDisplay:10.37,2013-04-05 22:10:00,
2013-04-05 15:15:00,63.1,52.0,30.13,WSW,253,8.7,13.0,67,0.00,BKN,,0.01,766.0,WeatherDisplay:10.37,2013-04-05 22:15:00,
2013-04-05 15:20:00,63.5,52.3,30.13,West,265,7.8,11.5,67,0.00,BKN,,0.01,763.0,WeatherDisplay:10.37,2013-04-05 22:20:00,
2013-04-05 15:25:00,63.6,51.6,30.13,West,274,9.5,16.1,65,0.00,BKN,,0.01,749.0,WeatherDisplay:10.37,2013-04-05 22:25:00,
2013-04-05 15:30:00,63.4,51.0,30.13,SW,225,9.6,15.0,64,0.00,BKN,,0.01,733.0,WeatherDisplay:10.37,2013-04-05 22:30:00,
2013-04-05 15:35:00,63.4,51.0,30.13,SW,222,9.1,13.8,64,0.00,BKN,,0.01,719.0,WeatherDisplay:10.37,2013-04-05 22:35:00,
2013-04-05 15:40:00,63.2,50.4,30.14,SSW,196,13.2,16.1,63,0.00,BKN,,0.01,707.0,WeatherDisplay:10.37,2013-04-05 22:40:00,
2013-04-05 15:45:00,63.0,50.6,30.13,SSW,201,13.3,17.3,64,0.00,BKN,,0.01,694.0,WeatherDisplay:10.37,2013-04-05 22:45:00,
2013-04-05 15:50:00,63.0,50.6,30.13,SSW,200,10.3,17.3,64,0.00,BKN,,0.01,677.0,WeatherDisplay:10.37,2013-04-05 22:50:00,
2013-04-05 15:55:00,62.8,50.4,30.13,SW,223,15.0,19.6,64,0.00,BKN,,0.01,663.0,WeatherDisplay:10.37,2013-04-05 22:55:00,
2013-04-05 16:00:00,62.7,50.8,30.14,WSW,252,10.9,16.1,65,0.00,BKN,,0.01,650.0,WeatherDisplay:10.37,2013-04-05 23:00:00,
2013-04-05 16:05:00,62.7,50.8,30.14,SW,216,12.1,17.3,65,0.00,FEW,,0.01,638.0,WeatherDisplay:10.37,2013-04-05 23:05:00,
2013-04-05 16:10:00,62.8,51.3,30.14,West,259,10.5,16.1,66,0.00,FEW,,0.01,621.0,WeatherDisplay:10.37,2013-04-05 23:10:00,
2013-04-05 16:15:00,62.8,50.9,30.14,South,171,10.6,13.8,65,0.00,FEW,,0.01,610.0,WeatherDisplay:10.37,2013-04-05 23:15:00,
2013-04-05 16:20:00,62.7,50.3,30.13,SW,235,9.7,13.8,64,0.00,FEW,,0.01,592.0,WeatherDisplay:10.37,2013-04-05 23:20:00,
2013-04-05 16:25:00,62.6,49.8,30.13,SW,231,10.3,18.4,63,0.00,FEW,,0.01,603.0,WeatherDisplay:10.37,2013-04-05 23:25:00,
2013-04-05 16:30:00,62.2,49.9,30.13,SSW,210,10.8,13.8,64,0.00,FEW,,0.01,577.0,WeatherDisplay:10.37,2013-04-05 23:30:00,
2013-04-05 16:35:00,62.0,49.7,30.13,SSW,203,11.4,15.0,64,0.00,FEW,,0.01,548.0,WeatherDisplay:10.37,2013-04-05 23:35:00,
2013-04-05 16:40:00,62.1,50.6,30.12,SW,226,7.4,13.8,66,0.00,FEW,,0.01,533.0,WeatherDisplay:10.37,2013-04-05 23:40:00,
2013-04-05 16:45:00,62.3,50.4,30.12,SSW,199,7.5,11.5,65,0.00,FEW,,0.01,524.0,WeatherDisplay:10.37,2013-04-05 23:45:00,
2013-04-05 16:50:00,62.7,49.9,30.12,WSW,250,13.8,17.3,63,0.00,FEW,,0.01,503.0,WeatherDisplay:10.37,2013-04-05 23:50:00,
2013-04-05 16:55:00,62.8,50.0,30.12,SW,228,12.8,15.0,63,0.00,FEW,,0.01,483.0,WeatherDisplay:10.37,2013-04-05 23:55:00,
2013-04-05 17:00:00,62.9,50.5,30.12,WNW,301,14.7,17.3,64,0.00,FEW,,0.01,473.0,WeatherDisplay:10.37,2013-04-06 00:00:00,
2013-04-05 17:05:00,62.9,50.5,30.12,WNW,282,13.6,17.3,64,0.00,SCT,,0.01,457.0,WeatherDisplay:10.37,2013-04-06 00:05:00,
2013-04-05 17:10:00,62.5,50.2,30.12,WSW,258,10.0,11.5,64,0.00,SCT,,0.01,439.0,WeatherDisplay:10.37,2013-04-06 00:10:00,
2013-04-05 17:15:00,62.5,50.2,30.12,WSW,255,10.0,13.8,64,0.00,SCT,,0.01,424.0,WeatherDisplay:10.37,2013-04-06 00:15:00,
2013-04-05 17:20:00,62.6,50.7,30.13,WNW,284,11.4,17.3,65,0.00,SCT,,0.01,413.0,WeatherDisplay:10.37,2013-04-06 00:20:00,
2013-04-05 17:25:00,62.6,51.1,30.14,West,263,7.4,10.4,66,0.00,SCT,,0.01,410.0,WeatherDisplay:10.37,2013-04-06 00:25:00,
2013-04-05 17:30:00,62.4,50.1,30.14,WSW,258,17.1,21.9,64,0.00,SCT,,0.01,387.0,WeatherDisplay:10.37,2013-04-06 00:30:00,
2013-04-05 17:35:00,61.3,50.2,30.14,WSW,255,9.7,13.8,67,0.00,SCT,,0.01,369.0,WeatherDisplay:10.37,2013-04-06 00:35:00,
2013-04-05 17:40:00,61.0,50.0,30.14,WSW,249,15.0,21.9,67,0.00,SCT,,0.01,311.0,WeatherDisplay:10.37,2013-04-06 00:40:00,
2013-04-05 17:46:00,59.9,49.3,30.14,West,269,8.5,16.1,68,0.00,SCT,,0.01,98.0,WeatherDisplay:10.37,2013-04-06 00:46:00,
2013-04-05 17:51:00,59.2,49.0,30.14,SW,217,11.2,16.1,69,0.00,SCT,,0.01,214.0,WeatherDisplay:10.37,2013-04-06 00:51:00,
2013-04-05 17:57:00,58.7,48.9,30.13,WNW,291,4.8,22.0,70,0.00,SCT,,0.01,323.0,WeatherDisplay:10.37,2013-04-06 00:57:00,
2013-04-05 18:02:00,59.0,49.2,30.13,West,270,7.8,10.4,70,0.00,SCT,,0.01,257.0,WeatherDisplay:10.37,2013-04-06 01:02:00,
2013-04-05 18:07:00,59.4,49.2,30.13,SW,221,9.8,14.0,69,0.00,SCT,,0.01,279.0,WeatherDisplay:10.37,2013-04-06 01:07:00,
2013-04-05 18:12:00,58.8,48.6,30.13,SW,223,10.5,15.0,69,0.00,SCT,,0.01,93.0,WeatherDisplay:10.37,2013-04-06 01:12:00,
2013-04-05 18:17:00,57.8,48.1,30.13,West,262,8.6,16.1,70,0.00,SCT,,0.01,95.0,WeatherDisplay:10.37,2013-04-06 01:17:00,
2013-04-05 18:22:00,57.0,47.7,30.13,WSW,251,10.3,13.8,71,0.00,SCT,,0.01,81.0,WeatherDisplay:10.37,2013-04-06 01:22:00,
2013-04-05 18:27:00,56.6,48.0,30.13,SW,226,11.9,18.4,73,0.00,SCT,,0.01,54.0,WeatherDisplay:10.37,2013-04-06 01:27:00,
2013-04-05 18:32:00,56.2,48.0,30.14,WSW,253,10.5,16.0,74,0.00,SCT,,0.01,37.0,WeatherDisplay:10.37,2013-04-06 01:32:00,
2013-04-05 18:37:00,55.8,48.0,30.14,SSW,200,4.9,9.2,75,0.00,SCT,,0.01,37.0,WeatherDisplay:10.37,2013-04-06 01:37:00,
2013-04-05 18:42:00,55.7,48.2,30.14,SW,232,4.8,8.1,76,0.00,SCT,,0.01,28.0,WeatherDisplay:10.37,2013-04-06 01:42:00,
2013-04-05 18:47:00,55.6,48.5,30.14,West,274,4.0,4.6,77,0.00,SCT,,0.01,25.0,WeatherDisplay:10.37,2013-04-06 01:47:00,
2013-04-05 18:52:00,55.5,48.4,30.14,West,270,3.4,7.0,77,0.00,SCT,,0.01,23.0,WeatherDisplay:10.37,2013-04-06 01:52:00,
2013-04-05 18:57:00,55.4,48.3,30.13,SW,230,2.3,4.6,77,0.00,SCT,,0.01,28.0,WeatherDisplay:10.37,2013-04-06 01:57:00,
2013-04-05 19:02:00,55.2,48.1,30.12,West,260,1.7,4.6,77,0.00,CLR,,0.01,33.0,WeatherDisplay:10.37,2013-04-06 02:02:00,
2013-04-05 19:07:00,55.1,48.0,30.12,WSW,254,4.8,6.9,77,0.00,CLR,,0.01,30.0,WeatherDisplay:10.37,2013-04-06 02:07:00,
2013-04-05 19:12:00,54.9,47.8,30.13,WSW,255,7.3,9.2,77,0.00,CLR,,0.01,25.0,WeatherDisplay:10.37,2013-04-06 02:12:00,
2013-04-05 19:17:00,54.6,47.5,30.13,SW,224,7.3,9.2,77,0.00,CLR,,0.01,19.0,WeatherDisplay:10.37,2013-04-06 02:17:00,
2013-04-05 19:22:00,54.4,47.3,30.12,West,262,5.5,8.1,77,0.00,CLR,,0.01,12.0,WeatherDisplay:10.37,2013-04-06 02:22:00,
2013-04-05 19:27:00,54.2,47.5,30.12,West,278,9.3,11.5,78,0.00,CLR,,0.01,9.0,WeatherDisplay:10.37,2013-04-06 02:27:00,
2013-04-05 19:32:00,54.0,47.3,30.13,West,274,12.1,13.8,78,0.00,CLR,,0.01,0.0,WeatherDisplay:10.37,2013-04-06 02:32:00,
2013-04-05 19:37:00,53.8,47.4,30.13,WSW,239,10.6,13.0,79,0.00,CLR,,0.01,0.0,WeatherDisplay:10.37,2013-04-06 02:37:00,
2013-04-05 19:42:00,53.6,47.6,30.14,West,270,8.8,12.7,80,0.00,CLR,,0.01,0.0,WeatherDisplay:10.37,2013-04-06 02:42:00,
2013-04-05 19:47:00,53.4,47.7,30.13,West,267,10.0,12.0,81,0.00,CLR,,0.01,0.0,WeatherDisplay:10.37,2013-04-06 02:47:00,
2013-04-05 19:52:00,53.2,47.5,30.13,WSW,239,8.7,11.5,81,0.00,CLR,,0.01,0.0,WeatherDisplay:10.37,2013-04-06 02:52:00,
2013-04-05 19:57:00,53.0,47.7,30.13,West,262,7.3,9.2,82,0.00,CLR,,0.01,0.0,WeatherDisplay:10.37,2013-04-06 02:57:00,
2013-04-05 20:02:00,52.8,47.8,30.13,WSW,256,5.7,8.1,83,0.00,CLR,,0.01,0.0,WeatherDisplay:10.37,2013-04-06 03:02:00,
2013-04-05 20:07:00,52.6,47.6,30.14,SW,221,1.6,4.6,83,0.00,CLR,,0.01,0.0,WeatherDisplay:10.37,2013-04-06 03:07:00,
2013-04-05 20:12:00,52.3,47.3,30.13,SSW,213,2.4,3.5,83,0.00,CLR,,0.01,0.0,WeatherDisplay:10.37,2013-04-06 03:12:00,
2013-04-05 20:17:00,52.2,47.2,30.14,SW,232,5.3,9.0,83,0.00,CLR,,0.01,0.0,WeatherDisplay:10.37,2013-04-06 03:17:00,
2013-04-05 20:22:00,52.0,47.3,30.14,SW,216,9.1,13.8,84,0.00,CLR,,0.01,0.0,WeatherDisplay:10.37,2013-04-06 03:22:00,
2013-04-05 20:27:00,52.1,47.4,30.14,SSW,212,8.0,11.5,84,0.00,CLR,,0.01,0.0,WeatherDisplay:10.37,2013-04-06 03:27:00,
2013-04-05 20:33:00,52.1,47.4,30.14,SW,235,5.6,9.2,84,0.00,CLR,,0.01,0.0,WeatherDisplay:10.37,2013-04-06 03:33:00,
2013-04-05 20:38:00,52.1,47.4,30.14,SSW,195,6.3,8.1,84,0.00,CLR,,0.01,0.0,WeatherDisplay:10.37,2013-04-06 03:38:00,
2013-04-05 20:43:00,52.1,47.7,30.15,West,259,10.7,13.8,85,0.00,CLR,,0.01,0.0,WeatherDisplay:10.37,2013-04-06 03:43:00,
2013-04-05 20:48:00,52.1,47.7,30.15,SW,234,9.1,11.5,85,0.00,CLR,,0.01,0.0,WeatherDisplay:10.37,2013-04-06 03:48:00,
2013-04-05 20:53:00,52.0,47.6,30.15,SW,218,4.8,7.0,85,0.00,CLR,,0.01,0.0,WeatherDisplay:10.37,2013-04-06 03:53:00,
2013-04-05 20:58:00,51.9,47.5,30.15,WSW,243,2.5,3.5,85,0.00,CLR,,0.01,0.0,WeatherDisplay:10.37,2013-04-06 03:58:00,
2013-04-05 21:00:00,51.8,47.4,30.15,WNW,299,2.7,3.5,85,0.00,CLR,,0.01,0.0,WeatherDisplay:10.37,2013-04-06 04:00:00,
2013-04-05 21:05:00,51.7,47.3,30.16,WSW,242,3.0,5.0,85,0.00,CLR,,0.01,0.0,WeatherDisplay:10.37,2013-04-06 04:05:00,
2013-04-05 21:10:00,51.6,47.2,30.15,WSW,238,8.2,11.5,85,0.00,CLR,,0.01,0.0,WeatherDisplay:10.37,2013-04-06 04:10:00,
2013-04-05 21:15:00,51.5,47.5,30.16,WSW,247,9.1,11.5,86,0.00,CLR,,0.01,0.0,WeatherDisplay:10.37,2013-04-06 04:15:00,
2013-04-05 21:20:00,51.5,47.5,30.16,SSW,208,6.9,9.2,86,0.00,CLR,,0.01,0.0,WeatherDisplay:10.37,2013-04-06 04:20:00,
2013-04-05 21:25:00,51.5,47.5,30.16,SW,231,4.8,6.9,86,0.00,CLR,,0.01,0.0,WeatherDisplay:10.37,2013-04-06 04:25:00,
2013-04-05 21:30:00,51.5,47.5,30.17,West,270,3.0,5.8,86,0.00,CLR,,0.01,0.0,WeatherDisplay:10.37,2013-04-06 04:30:00,
2013-04-05 21:35:00,51.4,47.4,30.17,WSW,255,0.1,1.2,86,0.00,CLR,,0.01,0.0,WeatherDisplay:10.37,2013-04-06 04:35:00,
2013-04-05 21:40:00,51.4,47.4,30.17,WSW,254,0.0,0.0,86,0.00,CLR,,0.01,0.0,WeatherDisplay:10.37,2013-04-06 04:40:00,
2013-04-05 21:45:00,51.3,47.3,30.17,SW,214,1.4,3.5,86,0.00,CLR,,0.01,0.0,WeatherDisplay:10.37,2013-04-06 04:45:00,
2013-04-05 21:50:00,51.2,47.2,30.17,SW,214,2.6,3.5,86,0.00,CLR,,0.01,0.0,WeatherDisplay:10.37,2013-04-06 04:50:00,
2013-04-05 21:55:00,51.1,47.1,30.17,SW,214,3.2,5.0,86,0.00,CLR,,0.01,0.0,WeatherDisplay:10.37,2013-04-06 04:55:00,
2013-04-05 22:00:00,51.1,47.1,30.17,West,260,1.5,3.0,86,0.00,CLR,,0.01,0.0,WeatherDisplay:10.37,2013-04-06 05:00:00,
2013-04-05 22:05:00,51.0,47.0,30.18,WSW,255,3.8,5.0,86,0.00,CLR,,0.01,0.0,WeatherDisplay:10.37,2013-04-06 05:05:00,
2013-04-05 22:10:00,51.0,47.0,30.18,SW,216,2.7,3.5,86,0.00,CLR,,0.01,0.0,WeatherDisplay:10.37,2013-04-06 05:10:00,
2013-04-05 22:15:00,51.0,47.0,30.18,SW,223,4.2,4.6,86,0.00,CLR,,0.01,0.0,WeatherDisplay:10.37,2013-04-06 05:15:00,
2013-04-05 22:20:00,50.9,46.9,30.18,SW,230,4.6,6.9,86,0.00,CLR,,0.01,0.0,WeatherDisplay:10.37,2013-04-06 05:20:00,
2013-04-05 22:25:00,50.9,46.9,30.18,SW,226,4.8,7.0,86,0.00,CLR,,0.01,0.0,WeatherDisplay:10.37,2013-04-06 05:25:00,
2013-04-05 22:30:00,50.7,46.7,30.18,SW,218,3.9,5.8,86,0.00,CLR,,0.01,0.0,WeatherDisplay:10.37,2013-04-06 05:30:00,
2013-04-05 22:35:00,50.7,47.0,30.17,SSW,192,4.3,22.0,87,0.00,CLR,,0.01,0.0,WeatherDisplay:10.37,2013-04-06 05:35:00,
2013-04-05 22:40:00,50.6,46.9,30.18,South,180,3.7,22.0,87,0.00,CLR,,0.01,0.0,WeatherDisplay:10.37,2013-04-06 05:40:00,
2013-04-05 22:45:00,50.5,46.8,30.18,SW,214,0.6,1.2,87,0.00,CLR,,0.01,0.0,WeatherDisplay:10.37,2013-04-06 05:45:00,
2013-04-05 22:50:00,50.5,46.8,30.18,South,191,1.8,22.0,87,0.00,CLR,,0.01,0.0,WeatherDisplay:10.37,2013-04-06 05:50:00,
2013-04-05 22:55:00,50.5,46.8,30.18,South,178,1.8,3.5,87,0.00,CLR,,0.01,0.0,WeatherDisplay:10.37,2013-04-06 05:55:00,
2013-04-05 23:00:00,50.5,46.8,30.17,West,262,5.6,8.0,87,0.00,CLR,,0.01,0.0,WeatherDisplay:10.37,2013-04-06 06:00:00,
2013-04-05 23:05:00,50.5,46.8,30.18,WSW,247,7.2,22.0,87,0.00,CLR,,0.01,0.0,WeatherDisplay:10.37,2013-04-06 06:05:00,
2013-04-05 23:10:00,50.6,46.9,30.18,West,260,7.0,10.4,87,0.00,CLR,,0.01,0.0,WeatherDisplay:10.37,2013-04-06 06:10:00,
2013-04-05 23:15:00,50.7,47.0,30.18,WSW,253,7.3,9.2,87,0.00,CLR,,0.01,0.0,WeatherDisplay:10.37,2013-04-06 06:15:00,
2013-04-05 23:20:00,50.7,47.0,30.18,West,274,4.5,6.9,87,0.00,CLR,,0.01,0.0,WeatherDisplay:10.37,2013-04-06 06:20:00,
2013-04-05 23:25:00,50.7,47.0,30.18,West,264,6.3,22.0,87,0.00,CLR,,0.01,0.0,WeatherDisplay:10.37,2013-04-06 06:25:00,
2013-04-05 23:30:00,50.7,47.0,30.18,WNW,286,6.1,22.0,87,0.00,CLR,,0.01,0.0,WeatherDisplay:10.37,2013-04-06 06:30:00,
2013-04-05 23:36:00,50.6,46.9,30.17,West,264,6.3,8.1,87,0.00,CLR,,0.01,0.0,WeatherDisplay:10.37,2013-04-06 06:36:00,
2013-04-05 23:41:00,50.5,46.8,30.18,WSW,249,6.1,10.4,87,0.00,CLR,,0.01,0.0,WeatherDisplay:10.37,2013-04-06 06:41:00,
2013-04-05 23:46:00,50.5,47.1,30.18,WSW,241,3.0,5.8,88,0.00,CLR,,0.01,0.0,WeatherDisplay:10.37,2013-04-06 06:46:00,
2013-04-05 23:51:00,50.5,47.1,30.18,WSW,249,2.2,3.5,88,0.00,CLR,,0.01,0.0,WeatherDisplay:10.37,2013-04-06 06:51:00,
2013-04-05 23:56:00,50.4,47.0,30.18,SW,224,1.9,22.0,88,0.00,CLR,,0.01,0.0,WeatherDisplay:10.37,2013-04-06 06:56:00,